sensor_id;sensor_type;location;lat;lon;timestamp;pressure;altitude;pressure_sealevel;temperature;humidity
70248;BME280;57641;51.416;5.506;2023-01-30T00:00:57;102017.13;;;8.44;66.32
70248;BME280;57641;51.416;5.506;2023-01-30T00:03:24;102005.56;;;8.32;66.18
70248;BME280;57641;51.416;5.506;2023-01-30T00:05:53;102004.13;;;8.52;65.59
70248;BME280;57641;51.416;5.506;2023-01-30T00:08:19;102007.19;;;8.59;65.79
70248;BME280;57641;51.416;5.506;2023-01-30T00:10:45;102000.56;;;8.28;66.49
70248;BME280;57641;51.416;5.506;2023-01-30T00:13:12;101987.81;;;8.33;67.49
70248;BME280;57641;51.416;5.506;2023-01-30T00:15:44;101983.00;;;8.51;67.21
70248;BME280;57641;51.416;5.506;2023-01-30T00:18:10;101984.88;;;8.61;66.11
70248;BME280;57641;51.416;5.506;2023-01-30T00:20:36;101992.94;;;8.60;65.58
70248;BME280;57641;51.416;5.506;2023-01-30T00:23:02;101980.78;;;8.68;66.44
70248;BME280;57641;51.416;5.506;2023-01-30T00:25:37;101970.38;;;8.65;66.23
70248;BME280;57641;51.416;5.506;2023-01-30T00:28:03;101963.59;;;8.61;66.53
70248;BME280;57641;51.416;5.506;2023-01-30T00:30:29;101961.25;;;8.80;66.23
70248;BME280;57641;51.416;5.506;2023-01-30T00:32:56;101958.59;;;8.80;66.39
70248;BME280;57641;51.416;5.506;2023-01-30T00:35:22;101957.91;;;8.89;66.39
70248;BME280;57641;51.416;5.506;2023-01-30T00:37:57;101959.75;;;9.00;65.44
70248;BME280;57641;51.416;5.506;2023-01-30T00:40:25;101965.56;;;9.05;65.52
70248;BME280;57641;51.416;5.506;2023-01-30T00:42:51;101956.84;;;8.68;66.53
70248;BME280;57641;51.416;5.506;2023-01-30T00:45:36;101950.22;;;8.74;67.03
70248;BME280;57641;51.416;5.506;2023-01-30T00:48:26;101940.34;;;8.76;67.50
70248;BME280;57641;51.416;5.506;2023-01-30T00:50:53;101949.91;;;8.89;66.51
70248;BME280;57641;51.416;5.506;2023-01-30T00:53:18;101940.41;;;8.98;66.33
70248;BME280;57641;51.416;5.506;2023-01-30T00:55:44;101957.56;;;8.94;66.68
70248;BME280;57641;51.416;5.506;2023-01-30T00:58:13;101961.00;;;9.07;66.69
70248;BME280;57641;51.416;5.506;2023-01-30T01:00:39;101954.47;;;9.11;65.67
70248;BME280;57641;51.416;5.506;2023-01-30T01:03:04;101969.19;;;9.04;66.82
70248;BME280;57641;51.416;5.506;2023-01-30T01:05:30;101943.19;;;8.97;66.75
70248;BME280;57641;51.416;5.506;2023-01-30T01:07:56;101955.81;;;9.17;66.05
70248;BME280;57641;51.416;5.506;2023-01-30T01:10:23;101943.13;;;9.09;66.54
70248;BME280;57641;51.416;5.506;2023-01-30T01:12:49;101954.56;;;9.10;66.95
70248;BME280;57641;51.416;5.506;2023-01-30T01:15:17;101944.34;;;8.81;67.17
70248;BME280;57641;51.416;5.506;2023-01-30T01:17:42;101954.72;;;9.08;67.35
70248;BME280;57641;51.416;5.506;2023-01-30T01:20:09;101952.06;;;9.08;66.20
70248;BME280;57641;51.416;5.506;2023-01-30T01:22:35;101942.84;;;9.01;67.18
70248;BME280;57641;51.416;5.506;2023-01-30T01:25:00;101948.13;;;9.25;66.90
70248;BME280;57641;51.416;5.506;2023-01-30T01:27:26;101944.69;;;9.12;67.11
70248;BME280;57641;51.416;5.506;2023-01-30T01:29:52;101951.44;;;9.16;67.60
70248;BME280;57641;51.416;5.506;2023-01-30T01:32:20;101957.16;;;9.22;66.78
70248;BME280;57641;51.416;5.506;2023-01-30T01:34:46;101940.22;;;9.12;67.54
70248;BME280;57641;51.416;5.506;2023-01-30T01:37:11;101934.91;;;9.23;67.02
70248;BME280;57641;51.416;5.506;2023-01-30T01:39:37;101935.28;;;9.30;66.30
70248;BME280;57641;51.416;5.506;2023-01-30T01:42:25;101939.81;;;9.06;66.79
70248;BME280;57641;51.416;5.506;2023-01-30T01:45:02;101927.22;;;8.97;68.07
70248;BME280;57641;51.416;5.506;2023-01-30T01:47:29;101927.72;;;9.02;67.14
70248;BME280;57641;51.416;5.506;2023-01-30T01:49:55;101922.41;;;9.02;67.38
70248;BME280;57641;51.416;5.506;2023-01-30T01:52:21;101919.13;;;8.98;68.55
70248;BME280;57641;51.416;5.506;2023-01-30T01:54:55;101907.94;;;9.17;68.31
70248;BME280;57641;51.416;5.506;2023-01-30T01:57:36;101910.66;;;9.04;67.25
70248;BME280;57641;51.416;5.506;2023-01-30T02:00:05;101885.41;;;9.10;67.66
70248;BME280;57641;51.416;5.506;2023-01-30T02:02:35;101881.34;;;9.28;67.06
70248;BME280;57641;51.416;5.506;2023-01-30T02:05:02;101881.44;;;9.26;67.64
70248;BME280;57641;51.416;5.506;2023-01-30T02:07:39;101872.13;;;9.21;67.40
70248;BME280;57641;51.416;5.506;2023-01-30T02:10:18;101862.94;;;9.14;68.32
70248;BME280;57641;51.416;5.506;2023-01-30T02:12:44;101858.13;;;9.30;67.76
70248;BME280;57641;51.416;5.506;2023-01-30T02:15:13;101861.84;;;9.27;67.27
70248;BME280;57641;51.416;5.506;2023-01-30T02:17:38;101882.78;;;9.32;67.02
70248;BME280;57641;51.416;5.506;2023-01-30T02:30:00;101862.53;;;8.96;68.94
70248;BME280;57641;51.416;5.506;2023-01-30T02:32:36;101852.16;;;9.04;68.77
70248;BME280;57641;51.416;5.506;2023-01-30T02:43:49;101815.78;;;9.27;68.33
70248;BME280;57641;51.416;5.506;2023-01-30T02:46:25;101819.16;;;9.29;68.81
70248;BME280;57641;51.416;5.506;2023-01-30T02:51:37;101821.34;;;9.35;67.95
70248;BME280;57641;51.416;5.506;2023-01-30T02:54:10;101816.63;;;9.27;68.40
70248;BME280;57641;51.416;5.506;2023-01-30T02:56:48;101812.50;;;9.23;68.61
70248;BME280;57641;51.416;5.506;2023-01-30T02:59:21;101832.84;;;9.13;68.30
70248;BME280;57641;51.416;5.506;2023-01-30T03:04:33;101828.13;;;9.28;68.96
70248;BME280;57641;51.416;5.506;2023-01-30T03:15:44;101827.03;;;9.30;68.51
70248;BME280;57641;51.416;5.506;2023-01-30T03:18:12;101816.50;;;9.29;69.34
70248;BME280;57641;51.416;5.506;2023-01-30T03:20:39;101809.72;;;9.36;69.36
70248;BME280;57641;51.416;5.506;2023-01-30T03:23:06;101803.09;;;9.19;69.67
70248;BME280;57641;51.416;5.506;2023-01-30T03:25:34;101819.16;;;9.51;68.70
70248;BME280;57641;51.416;5.506;2023-01-30T03:28:02;101808.03;;;9.46;68.63
70248;BME280;57641;51.416;5.506;2023-01-30T03:30:29;101809.69;;;9.58;68.52
70248;BME280;57641;51.416;5.506;2023-01-30T03:32:54;101800.72;;;9.70;68.77
70248;BME280;57641;51.416;5.506;2023-01-30T03:35:20;101797.72;;;9.53;67.70
70248;BME280;57641;51.416;5.506;2023-01-30T03:37:46;101796.41;;;9.47;68.95
70248;BME280;57641;51.416;5.506;2023-01-30T03:40:14;101796.25;;;9.71;69.50
70248;BME280;57641;51.416;5.506;2023-01-30T03:42:40;101791.19;;;9.57;70.04
70248;BME280;57641;51.416;5.506;2023-01-30T03:45:07;101786.69;;;9.68;69.56
70248;BME280;57641;51.416;5.506;2023-01-30T03:47:34;101778.75;;;9.46;70.01
70248;BME280;57641;51.416;5.506;2023-01-30T03:49:59;101773.75;;;9.64;69.95
70248;BME280;57641;51.416;5.506;2023-01-30T03:52:25;101788.09;;;9.84;69.07
70248;BME280;57641;51.416;5.506;2023-01-30T03:54:51;101789.97;;;9.61;70.10
70248;BME280;57641;51.416;5.506;2023-01-30T03:57:16;101785.88;;;9.57;71.12
70248;BME280;57641;51.416;5.506;2023-01-30T03:59:43;101777.50;;;9.61;69.96
70248;BME280;57641;51.416;5.506;2023-01-30T04:02:09;101773.13;;;9.71;69.95
70248;BME280;57641;51.416;5.506;2023-01-30T04:04:35;101774.97;;;9.60;70.69
70248;BME280;57641;51.416;5.506;2023-01-30T04:07:00;101776.53;;;9.62;71.20
70248;BME280;57641;51.416;5.506;2023-01-30T04:09:26;101776.78;;;9.48;71.64
70248;BME280;57641;51.416;5.506;2023-01-30T04:11:52;101787.44;;;9.48;71.61
70248;BME280;57641;51.416;5.506;2023-01-30T04:14:18;101785.50;;;9.61;71.40
70248;BME280;57641;51.416;5.506;2023-01-30T04:16:44;101783.78;;;9.71;70.51
70248;BME280;57641;51.416;5.506;2023-01-30T04:19:20;101767.97;;;9.37;72.14
70248;BME280;57641;51.416;5.506;2023-01-30T04:21:46;101771.38;;;9.27;73.39
70248;BME280;57641;51.416;5.506;2023-01-30T04:24:11;101772.97;;;9.30;72.86
70248;BME280;57641;51.416;5.506;2023-01-30T04:26:36;101768.94;;;9.47;73.13
70248;BME280;57641;51.416;5.506;2023-01-30T04:29:03;101765.84;;;9.30;72.25
70248;BME280;57641;51.416;5.506;2023-01-30T04:31:32;101753.56;;;9.50;72.09
70248;BME280;57641;51.416;5.506;2023-01-30T04:33:58;101758.94;;;9.82;71.20
70248;BME280;57641;51.416;5.506;2023-01-30T04:36:24;101753.22;;;9.87;71.38
70248;BME280;57641;51.416;5.506;2023-01-30T04:38:49;101761.88;;;9.68;71.55
70248;BME280;57641;51.416;5.506;2023-01-30T04:41:15;101772.84;;;9.86;70.89
70248;BME280;57641;51.416;5.506;2023-01-30T04:43:41;101754.72;;;9.68;71.02
70248;BME280;57641;51.416;5.506;2023-01-30T04:46:06;101751.22;;;9.68;72.18
70248;BME280;57641;51.416;5.506;2023-01-30T04:48:32;101752.91;;;9.69;71.82
70248;BME280;57641;51.416;5.506;2023-01-30T04:50:58;101755.31;;;9.83;71.72
70248;BME280;57641;51.416;5.506;2023-01-30T04:53:24;101749.06;;;9.62;72.41
70248;BME280;57641;51.416;5.506;2023-01-30T04:55:50;101766.13;;;9.59;71.86
70248;BME280;57641;51.416;5.506;2023-01-30T04:58:20;101770.22;;;9.63;72.27
70248;BME280;57641;51.416;5.506;2023-01-30T05:00:46;101766.44;;;9.88;71.82
70248;BME280;57641;51.416;5.506;2023-01-30T05:03:12;101764.47;;;9.90;71.24
70248;BME280;57641;51.416;5.506;2023-01-30T05:05:38;101772.19;;;9.61;72.92
70248;BME280;57641;51.416;5.506;2023-01-30T05:08:07;101772.97;;;9.84;72.47
70248;BME280;57641;51.416;5.506;2023-01-30T05:10:32;101773.69;;;9.86;72.51
70248;BME280;57641;51.416;5.506;2023-01-30T05:13:03;101771.22;;;9.94;72.37
70248;BME280;57641;51.416;5.506;2023-01-30T05:15:29;101776.47;;;9.85;72.93
70248;BME280;57641;51.416;5.506;2023-01-30T05:17:55;101783.53;;;9.74;72.42
70248;BME280;57641;51.416;5.506;2023-01-30T05:20:22;101779.22;;;9.94;72.60
70248;BME280;57641;51.416;5.506;2023-01-30T05:22:47;101780.63;;;10.09;71.83
70248;BME280;57641;51.416;5.506;2023-01-30T05:25:13;101779.22;;;10.26;71.59
70248;BME280;57641;51.416;5.506;2023-01-30T05:27:39;101772.38;;;10.12;72.10
70248;BME280;57641;51.416;5.506;2023-01-30T05:30:04;101764.66;;;10.09;71.80
70248;BME280;57641;51.416;5.506;2023-01-30T05:32:30;101779.31;;;10.04;72.12
70248;BME280;57641;51.416;5.506;2023-01-30T05:34:56;101771.56;;;10.01;72.49
70248;BME280;57641;51.416;5.506;2023-01-30T05:37:21;101773.88;;;9.94;72.23
70248;BME280;57641;51.416;5.506;2023-01-30T05:39:50;101769.88;;;10.32;71.97
70248;BME280;57641;51.416;5.506;2023-01-30T05:42:16;101766.75;;;10.47;70.77
70248;BME280;57641;51.416;5.506;2023-01-30T05:44:42;101776.34;;;10.50;70.65
70248;BME280;57641;51.416;5.506;2023-01-30T05:47:10;101768.34;;;10.50;70.82
70248;BME280;57641;51.416;5.506;2023-01-30T05:49:36;101753.25;;;10.60;69.21
70248;BME280;57641;51.416;5.506;2023-01-30T05:52:01;101762.59;;;10.54;69.22
70248;BME280;57641;51.416;5.506;2023-01-30T05:54:26;101766.91;;;10.67;69.61
70248;BME280;57641;51.416;5.506;2023-01-30T05:56:53;101758.00;;;10.56;69.95
70248;BME280;57641;51.416;5.506;2023-01-30T05:59:18;101764.31;;;10.35;70.08
70248;BME280;57641;51.416;5.506;2023-01-30T06:01:45;101766.31;;;10.42;70.23
70248;BME280;57641;51.416;5.506;2023-01-30T06:04:11;101781.16;;;10.56;69.61
70248;BME280;57641;51.416;5.506;2023-01-30T06:06:37;101789.59;;;10.40;70.64
70248;BME280;57641;51.416;5.506;2023-01-30T06:09:02;101801.13;;;10.62;70.26
70248;BME280;57641;51.416;5.506;2023-01-30T06:11:28;101790.56;;;10.60;70.27
70248;BME280;57641;51.416;5.506;2023-01-30T06:13:57;101795.13;;;10.69;69.79
70248;BME280;57641;51.416;5.506;2023-01-30T06:16:22;101795.78;;;10.62;69.19
70248;BME280;57641;51.416;5.506;2023-01-30T06:18:54;101791.81;;;10.35;69.74
70248;BME280;57641;51.416;5.506;2023-01-30T06:21:19;101792.66;;;10.36;69.96
70248;BME280;57641;51.416;5.506;2023-01-30T06:23:51;101807.53;;;10.38;70.34
70248;BME280;57641;51.416;5.506;2023-01-30T06:26:16;101799.50;;;10.49;69.61
70248;BME280;57641;51.416;5.506;2023-01-30T06:28:42;101794.16;;;10.70;69.52
70248;BME280;57641;51.416;5.506;2023-01-30T06:31:10;101788.88;;;10.80;69.20
70248;BME280;57641;51.416;5.506;2023-01-30T06:33:36;101793.25;;;10.60;69.13
70248;BME280;57641;51.416;5.506;2023-01-30T06:36:01;101801.75;;;10.75;68.46
70248;BME280;57641;51.416;5.506;2023-01-30T06:38:27;101813.78;;;10.90;67.96
70248;BME280;57641;51.416;5.506;2023-01-30T06:40:52;101829.47;;;10.83;68.50
70248;BME280;57641;51.416;5.506;2023-01-30T06:43:18;101824.00;;;10.85;68.19
70248;BME280;57641;51.416;5.506;2023-01-30T06:45:43;101809.56;;;10.87;67.26
70248;BME280;57641;51.416;5.506;2023-01-30T06:48:09;101796.63;;;10.83;67.72
70248;BME280;57641;51.416;5.506;2023-01-30T06:50:35;101807.38;;;10.72;67.16
70248;BME280;57641;51.416;5.506;2023-01-30T06:53:03;101827.47;;;10.76;66.76
70248;BME280;57641;51.416;5.506;2023-01-30T06:55:32;101832.78;;;10.55;67.38
70248;BME280;57641;51.416;5.506;2023-01-30T06:58:08;101831.94;;;10.54;67.11
70248;BME280;57641;51.416;5.506;2023-01-30T07:00:45;101830.97;;;10.76;65.96
70248;BME280;57641;51.416;5.506;2023-01-30T07:03:16;101822.97;;;10.76;65.72
70248;BME280;57641;51.416;5.506;2023-01-30T07:05:44;101811.97;;;10.49;65.58
70248;BME280;57641;51.416;5.506;2023-01-30T07:08:12;101806.00;;;10.56;65.45
70248;BME280;57641;51.416;5.506;2023-01-30T07:10:39;101813.91;;;10.47;65.39
70248;BME280;57641;51.416;5.506;2023-01-30T07:13:05;101816.28;;;10.61;64.82
70248;BME280;57641;51.416;5.506;2023-01-30T07:15:30;101823.53;;;10.59;64.09
70248;BME280;57641;51.416;5.506;2023-01-30T07:17:56;101816.72;;;10.66;63.90
70248;BME280;57641;51.416;5.506;2023-01-30T07:20:25;101824.34;;;10.71;63.54
70248;BME280;57641;51.416;5.506;2023-01-30T07:22:52;101837.16;;;10.56;63.01
70248;BME280;57641;51.416;5.506;2023-01-30T07:25:20;101837.00;;;10.57;62.88
70248;BME280;57641;51.416;5.506;2023-01-30T07:30:16;101840.78;;;10.55;63.34
70248;BME280;57641;51.416;5.506;2023-01-30T07:32:53;101850.72;;;10.74;62.67
70248;BME280;57641;51.416;5.506;2023-01-30T07:35:21;101842.28;;;10.69;63.07
70248;BME280;57641;51.416;5.506;2023-01-30T07:37:47;101849.31;;;10.70;62.08
70248;BME280;57641;51.416;5.506;2023-01-30T07:40:15;101855.22;;;10.52;62.84
70248;BME280;57641;51.416;5.506;2023-01-30T07:42:42;101857.28;;;10.49;62.58
70248;BME280;57641;51.416;5.506;2023-01-30T07:45:08;101862.38;;;10.20;62.68
70248;BME280;57641;51.416;5.506;2023-01-30T07:47:33;101859.97;;;10.17;63.11
70248;BME280;57641;51.416;5.506;2023-01-30T07:50:01;101868.38;;;10.33;62.64
70248;BME280;57641;51.416;5.506;2023-01-30T07:52:26;101869.13;;;10.35;62.42
70248;BME280;57641;51.416;5.506;2023-01-30T07:54:52;101866.88;;;10.51;61.36
70248;BME280;57641;51.416;5.506;2023-01-30T07:57:17;101865.97;;;10.30;61.56
70248;BME280;57641;51.416;5.506;2023-01-30T07:59:43;101863.41;;;10.40;60.32
70248;BME280;57641;51.416;5.506;2023-01-30T08:02:09;101863.41;;;10.40;59.95
70248;BME280;57641;51.416;5.506;2023-01-30T08:04:38;101862.38;;;10.09;60.60
70248;BME280;57641;51.416;5.506;2023-01-30T08:07:04;101866.88;;;10.08;60.29
70248;BME280;57641;51.416;5.506;2023-01-30T08:09:30;101861.28;;;10.11;60.30
70248;BME280;57641;51.416;5.506;2023-01-30T08:11:56;101859.03;;;10.39;59.51
70248;BME280;57641;51.416;5.506;2023-01-30T08:14:21;101864.66;;;10.13;60.33
70248;BME280;57641;51.416;5.506;2023-01-30T08:16:47;101855.28;;;9.98;61.02
70248;BME280;57641;51.416;5.506;2023-01-30T08:19:15;101864.41;;;10.28;60.43
70248;BME280;57641;51.416;5.506;2023-01-30T08:21:41;101869.72;;;10.28;59.69
70248;BME280;57641;51.416;5.506;2023-01-30T08:24:07;101867.84;;;10.50;58.85
70248;BME280;57641;51.416;5.506;2023-01-30T08:26:33;101877.22;;;10.34;58.90
70248;BME280;57641;51.416;5.506;2023-01-30T08:28:58;101889.63;;;10.24;58.63
70248;BME280;57641;51.416;5.506;2023-01-30T08:31:24;101896.66;;;10.25;59.48
70248;BME280;57641;51.416;5.506;2023-01-30T08:33:50;101899.31;;;10.25;58.55
70248;BME280;57641;51.416;5.506;2023-01-30T08:36:16;101917.59;;;10.29;58.05
70248;BME280;57641;51.416;5.506;2023-01-30T08:38:45;101907.06;;;10.05;59.38
70248;BME280;57641;51.416;5.506;2023-01-30T08:41:11;101899.53;;;10.33;58.88
70248;BME280;57641;51.416;5.506;2023-01-30T08:43:38;101906.97;;;10.18;58.30
70248;BME280;57641;51.416;5.506;2023-01-30T08:46:06;101902.53;;;10.39;57.55
70248;BME280;57641;51.416;5.506;2023-01-30T08:48:32;101913.28;;;10.49;57.56
70248;BME280;57641;51.416;5.506;2023-01-30T08:50:58;101900.28;;;10.01;57.19
70248;BME280;57641;51.416;5.506;2023-01-30T08:53:24;101908.63;;;10.30;57.50
70248;BME280;57641;51.416;5.506;2023-01-30T08:55:53;101916.69;;;10.51;56.55
70248;BME280;57641;51.416;5.506;2023-01-30T08:58:20;101915.94;;;10.49;56.42
70248;BME280;57641;51.416;5.506;2023-01-30T09:00:46;101920.94;;;10.42;56.80
70248;BME280;57641;51.416;5.506;2023-01-30T09:03:12;101921.59;;;10.24;57.04
70248;BME280;57641;51.416;5.506;2023-01-30T09:05:38;101922.84;;;10.20;57.15
70248;BME280;57641;51.416;5.506;2023-01-30T09:08:04;101933.59;;;10.29;56.78
70248;BME280;57641;51.416;5.506;2023-01-30T09:10:30;101935.50;;;10.38;56.93
70248;BME280;57641;51.416;5.506;2023-01-30T09:12:56;101934.94;;;10.24;57.44
70248;BME280;57641;51.416;5.506;2023-01-30T09:15:25;101932.88;;;10.16;56.79
70248;BME280;57641;51.416;5.506;2023-01-30T09:17:53;101928.09;;;10.42;56.80
70248;BME280;57641;51.416;5.506;2023-01-30T09:20:25;101931.53;;;10.22;56.33
70248;BME280;57641;51.416;5.506;2023-01-30T09:22:51;101947.75;;;10.41;56.18
70248;BME280;57641;51.416;5.506;2023-01-30T09:25:16;101942.28;;;10.31;56.61
70248;BME280;57641;51.416;5.506;2023-01-30T09:27:52;101941.66;;;10.50;56.64
70248;BME280;57641;51.416;5.506;2023-01-30T09:30:29;101945.78;;;10.43;55.86
70248;BME280;57641;51.416;5.506;2023-01-30T09:32:54;101948.31;;;10.44;55.87
70248;BME280;57641;51.416;5.506;2023-01-30T09:35:20;101946.31;;;10.26;56.74
70248;BME280;57641;51.416;5.506;2023-01-30T09:37:52;101955.41;;;10.23;56.73
70248;BME280;57641;51.416;5.506;2023-01-30T09:40:26;101958.03;;;10.45;56.07
70248;BME280;57641;51.416;5.506;2023-01-30T09:54:41;101975.56;;;10.48;55.77
70248;BME280;57641;51.416;5.506;2023-01-30T09:57:21;101973.66;;;10.82;55.85
70248;BME280;57641;51.416;5.506;2023-01-30T10:00:11;101964.97;;;10.69;55.07
70248;BME280;57641;51.416;5.506;2023-01-30T10:02:56;101974.09;;;10.66;55.14
70248;BME280;57641;51.416;5.506;2023-01-30T10:05:32;101981.00;;;10.89;55.34
70248;BME280;57641;51.416;5.506;2023-01-30T10:08:06;101982.63;;;10.81;54.78
70248;BME280;57641;51.416;5.506;2023-01-30T10:14:06;101972.72;;;11.04;54.03
70248;BME280;57641;51.416;5.506;2023-01-30T10:16:50;101985.22;;;10.71;53.73
70248;BME280;57641;51.416;5.506;2023-01-30T10:28:08;102002.13;;;10.38;54.64
70248;BME280;57641;51.416;5.506;2023-01-30T10:30:36;101992.28;;;10.61;54.72
70248;BME280;57641;51.416;5.506;2023-01-30T10:33:09;101990.88;;;11.10;53.67
70248;BME280;57641;51.416;5.506;2023-01-30T10:35:41;101995.44;;;10.98;54.21
70248;BME280;57641;51.416;5.506;2023-01-30T10:43:35;101990.66;;;11.01;52.32
70248;BME280;57641;51.416;5.506;2023-01-30T10:48:47;101990.56;;;11.24;52.31
70248;BME280;57641;51.416;5.506;2023-01-30T10:51:55;102002.53;;;11.09;52.54
70248;BME280;57641;51.416;5.506;2023-01-30T11:00:39;102016.78;;;10.98;52.10
70248;BME280;57641;51.416;5.506;2023-01-30T11:05:57;102012.31;;;11.19;51.90
70248;BME280;57641;51.416;5.506;2023-01-30T11:08:31;102021.31;;;11.39;52.14
70248;BME280;57641;51.416;5.506;2023-01-30T11:10:58;102030.09;;;11.51;51.71
70248;BME280;57641;51.416;5.506;2023-01-30T11:13:32;102029.00;;;11.00;52.52
70248;BME280;57641;51.416;5.506;2023-01-30T11:16:07;102015.91;;;10.97;51.85
70248;BME280;57641;51.416;5.506;2023-01-30T11:18:47;102019.84;;;11.14;51.95
70248;BME280;57641;51.416;5.506;2023-01-30T11:21:33;102018.53;;;11.09;51.78
70248;BME280;57641;51.416;5.506;2023-01-30T11:24:17;102018.53;;;11.09;51.11
70248;BME280;57641;51.416;5.506;2023-01-30T11:26:48;102022.78;;;11.32;51.45
70248;BME280;57641;51.416;5.506;2023-01-30T11:29:29;102026.53;;;11.40;50.48
70248;BME280;57641;51.416;5.506;2023-01-30T11:32:04;102012.56;;;11.37;50.19
70248;BME280;57641;51.416;5.506;2023-01-30T11:34:31;102030.59;;;11.65;50.74
70248;BME280;57641;51.416;5.506;2023-01-30T11:37:22;102020.25;;;11.30;50.27
70248;BME280;57641;51.416;5.506;2023-01-30T11:39:54;102026.06;;;11.56;50.25
70248;BME280;57641;51.416;5.506;2023-01-30T11:42:27;102037.25;;;11.50;50.67
70248;BME280;57641;51.416;5.506;2023-01-30T11:44:59;102029.44;;;11.58;49.63
70248;BME280;57641;51.416;5.506;2023-01-30T11:47:27;102025.09;;;11.36;50.31
70248;BME280;57641;51.416;5.506;2023-01-30T11:49:58;102039.34;;;11.47;50.55
70248;BME280;57641;51.416;5.506;2023-01-30T11:52:32;102034.25;;;11.43;50.32
70248;BME280;57641;51.416;5.506;2023-01-30T11:55:03;102030.78;;;11.11;50.09
70248;BME280;57641;51.416;5.506;2023-01-30T11:57:46;102028.00;;;11.33;50.72
70248;BME280;57641;51.416;5.506;2023-01-30T12:00:19;102031.78;;;11.72;49.11
70248;BME280;57641;51.416;5.506;2023-01-30T12:02:56;102031.41;;;11.77;48.95
70248;BME280;57641;51.416;5.506;2023-01-30T12:05:32;102035.38;;;11.82;48.48
70248;BME280;57641;51.416;5.506;2023-01-30T12:08:36;102038.00;;;11.73;49.05
70248;BME280;57641;51.416;5.506;2023-01-30T12:11:03;102030.88;;;11.21;49.16
70248;BME280;57641;51.416;5.506;2023-01-30T12:13:39;102031.41;;;11.35;49.28
70248;BME280;57641;51.416;5.506;2023-01-30T12:16:23;102035.31;;;11.52;48.78
70248;BME280;57641;51.416;5.506;2023-01-30T12:18:59;102030.44;;;11.57;49.45
70248;BME280;57641;51.416;5.506;2023-01-30T12:21:34;102032.81;;;11.19;50.12
70248;BME280;57641;51.416;5.506;2023-01-30T12:24:27;102021.28;;;11.60;49.48
70248;BME280;57641;51.416;5.506;2023-01-30T12:31:02;102034.47;;;11.31;49.84
70248;BME280;57641;51.416;5.506;2023-01-30T12:33:22;102030.66;;;11.33;49.48
70248;BME280;57641;51.416;5.506;2023-01-30T12:58:41;102048.88;;;11.81;48.62
70248;BME280;57641;51.416;5.506;2023-01-30T13:01:24;102060.28;;;11.83;48.16
70248;BME280;57641;51.416;5.506;2023-01-30T13:07:10;102061.03;;;11.53;47.87
70248;BME280;57641;51.416;5.506;2023-01-30T13:12:40;102067.50;;;11.51;49.36
70248;BME280;57641;51.416;5.506;2023-01-30T13:15:30;102071.97;;;11.50;48.89
70248;BME280;57641;51.416;5.506;2023-01-30T13:23:40;102074.53;;;11.93;47.25
70248;BME280;57641;51.416;5.506;2023-01-30T13:26:13;102077.91;;;11.95;46.42
70248;BME280;57641;51.416;5.506;2023-01-30T13:28:45;102072.53;;;11.85;46.79
70248;BME280;57641;51.416;5.506;2023-01-30T13:31:16;102075.91;;;12.08;46.12
70248;BME280;57641;51.416;5.506;2023-01-30T13:34:03;102076.06;;;12.16;47.16
70248;BME280;57641;51.416;5.506;2023-01-30T13:41:49;102095.41;;;12.30;47.10
70248;BME280;57641;51.416;5.506;2023-01-30T13:44:20;102086.25;;;12.32;46.46
70248;BME280;57641;51.416;5.506;2023-01-30T13:46:48;102092.13;;;12.47;45.80
70248;BME280;57641;51.416;5.506;2023-01-30T13:49:21;102109.88;;;12.27;45.75
70248;BME280;57641;51.416;5.506;2023-01-30T13:51:57;102114.38;;;12.47;46.05
70248;BME280;57641;51.416;5.506;2023-01-30T13:56:59;102110.59;;;12.29;45.26
70248;BME280;57641;51.416;5.506;2023-01-30T14:09:48;102129.81;;;12.13;45.53
70248;BME280;57641;51.416;5.506;2023-01-30T14:12:25;102135.22;;;11.81;45.39
70248;BME280;57641;51.416;5.506;2023-01-30T14:17:38;102140.50;;;11.93;46.06
70248;BME280;57641;51.416;5.506;2023-01-30T14:20:15;102151.75;;;12.17;45.89
70248;BME280;57641;51.416;5.506;2023-01-30T14:22:54;102150.09;;;12.16;45.04
70248;BME280;57641;51.416;5.506;2023-01-30T14:33:33;102175.44;;;12.01;45.29
70248;BME280;57641;51.416;5.506;2023-01-30T14:38:34;102178.44;;;12.07;45.02
70248;BME280;57641;51.416;5.506;2023-01-30T14:49:20;102212.34;;;12.07;46.35
70248;BME280;57641;51.416;5.506;2023-01-30T14:51:49;102219.22;;;12.00;46.96
70248;BME280;57641;51.416;5.506;2023-01-30T14:54:25;102226.22;;;12.21;46.84
70248;BME280;57641;51.416;5.506;2023-01-30T14:57:16;102222.78;;;11.89;47.08
70248;BME280;57641;51.416;5.506;2023-01-30T14:59:55;102223.09;;;12.16;46.47
70248;BME280;57641;51.416;5.506;2023-01-30T15:02:31;102232.38;;;12.12;46.09
70248;BME280;57641;51.416;5.506;2023-01-30T15:05:06;102236.66;;;11.83;46.63
70248;BME280;57641;51.416;5.506;2023-01-30T15:07:42;102237.34;;;11.85;46.81
70248;BME280;57641;51.416;5.506;2023-01-30T15:15:38;102253.72;;;11.92;45.90
70248;BME280;57641;51.416;5.506;2023-01-30T15:21:34;102265.06;;;12.16;46.11
70248;BME280;57641;51.416;5.506;2023-01-30T15:27:53;102279.06;;;12.08;46.91
70248;BME280;57641;51.416;5.506;2023-01-30T15:32:32;102285.03;;;12.01;46.81
70248;BME280;57641;51.416;5.506;2023-01-30T15:35:00;102284.84;;;11.93;47.30
70248;BME280;57641;51.416;5.506;2023-01-30T15:37:39;102277.00;;;12.01;46.45
70248;BME280;57641;51.416;5.506;2023-01-30T15:40:26;102286.50;;;12.05;46.69
70248;BME280;57641;51.416;5.506;2023-01-30T15:43:32;102303.09;;;11.76;47.24
70248;BME280;57641;51.416;5.506;2023-01-30T15:48:40;102309.69;;;12.04;46.73
70248;BME280;57641;51.416;5.506;2023-01-30T15:51:11;102305.06;;;12.06;46.11
70248;BME280;57641;51.416;5.506;2023-01-30T15:53:41;102306.84;;;12.17;46.33
70248;BME280;57641;51.416;5.506;2023-01-30T15:56:42;102309.47;;;12.28;46.49
70248;BME280;57641;51.416;5.506;2023-01-30T15:59:02;102316.94;;;12.13;46.12